TAF LFRH
LFRH 280500Z 2806/2906 29007KT CAVOK TEMPO 2808/2818 SHRA SCT018TCU BKN030 OVC040 PROB30 TEMPO 2820/2903 4000 BR PROB40 TEMPO 2902/2906 RADZ SCT017 BKN025 OVC030=
METAR LFRH
LFRH 280900Z AUTO 31006KT 280V340 9999 FEW021 BKN047 OVC054 05/02 Q1011 TEMPO SHRA SCT018TCU BKN030 OVC040=
LFRH 280830Z AUTO 30005KT 270V330 CAVOK 05/02 Q1011 TEMPO SHRA SCT018TCU BKN030 OVC040=
LFRH 280800Z AUTO 29005KT 9999 FEW044 BKN066 04/02 Q1011 TEMPO SHRA SCT018TCU BKN030 OVC040=
LFRH 280730Z AUTO 28007KT 250V310 9999 BKN049 BKN072 BKN230 03/02 Q1011 TEMPO SHRA SCT018TCU BKN030 OVC040=
LFRH 280700Z AUTO 28006KT CAVOK 02/01 Q1011 TEMPO SHRA SCT018TCU BKN030 OVC040=
WC LFRH
WS LFRH
WV LFRH